sensor_id;sensor_type;location;lat;lon;timestamp;temperature;humidity
26599;DHT22;14240;51.064;16.612;2022-09-03T00:01:00;15.20;99.90
26599;DHT22;14240;51.064;16.612;2022-09-03T00:03:41;15.10;99.90
26599;DHT22;14240;51.064;16.612;2022-09-03T00:11:53;15.10;99.90
26599;DHT22;14240;51.064;16.612;2022-09-03T00:14:24;15.10;99.90
26599;DHT22;14240;51.064;16.612;2022-09-03T00:17:01;15.00;99.90
26599;DHT22;14240;51.064;16.612;2022-09-03T00:19:40;15.00;99.90
26599;DHT22;14240;51.064;16.612;2022-09-03T00:22:15;15.00;99.90
26599;DHT22;14240;51.064;16.612;2022-09-03T00:24:43;15.00;99.90
26599;DHT22;14240;51.064;16.612;2022-09-03T00:27:22;15.00;99.90
26599;DHT22;14240;51.064;16.612;2022-09-03T00:29:54;15.00;99.90
26599;DHT22;14240;51.064;16.612;2022-09-03T00:33:04;15.00;99.90
26599;DHT22;14240;51.064;16.612;2022-09-03T00:38:05;15.00;99.90
26599;DHT22;14240;51.064;16.612;2022-09-03T00:41:05;14.90;99.90
26599;DHT22;14240;51.064;16.612;2022-09-03T00:43:45;14.90;99.90
26599;DHT22;14240;51.064;16.612;2022-09-03T00:46:37;14.80;99.90
26599;DHT22;14240;51.064;16.612;2022-09-03T00:49:26;14.90;99.90
26599;DHT22;14240;51.064;16.612;2022-09-03T00:52:07;14.80;99.90
26599;DHT22;14240;51.064;16.612;2022-09-03T01:00:12;14.70;99.90
26599;DHT22;14240;51.064;16.612;2022-09-03T01:03:10;14.70;99.90
26599;DHT22;14240;51.064;16.612;2022-09-03T01:11:26;14.70;99.90
26599;DHT22;14240;51.064;16.612;2022-09-03T01:22:18;14.60;99.90
26599;DHT22;14240;51.064;16.612;2022-09-03T01:30:23;14.50;99.90
26599;DHT22;14240;51.064;16.612;2022-09-03T01:35:52;14.40;99.90
26599;DHT22;14240;51.064;16.612;2022-09-03T01:46:41;14.30;99.90
26599;DHT22;14240;51.064;16.612;2022-09-03T01:49:14;14.20;99.90
26599;DHT22;14240;51.064;16.612;2022-09-03T01:51:41;14.20;99.90
26599;DHT22;14240;51.064;16.612;2022-09-03T01:54:35;14.20;99.90
26599;DHT22;14240;51.064;16.612;2022-09-03T01:57:31;14.20;99.90
26599;DHT22;14240;51.064;16.612;2022-09-03T02:00:10;14.10;99.90
26599;DHT22;14240;51.064;16.612;2022-09-03T02:02:39;14.10;99.90
26599;DHT22;14240;51.064;16.612;2022-09-03T02:05:10;14.20;99.90
26599;DHT22;14240;51.064;16.612;2022-09-03T02:07:42;14.10;99.90
26599;DHT22;14240;51.064;16.612;2022-09-03T02:10:17;14.00;99.90
26599;DHT22;14240;51.064;16.612;2022-09-03T02:12:51;14.00;99.90
26599;DHT22;14240;51.064;16.612;2022-09-03T02:15:19;13.90;99.90
26599;DHT22;14240;51.064;16.612;2022-09-03T02:17:47;13.90;99.90
26599;DHT22;14240;51.064;16.612;2022-09-03T02:20:20;13.90;99.90
26599;DHT22;14240;51.064;16.612;2022-09-03T02:22:47;13.90;99.90
26599;DHT22;14240;51.064;16.612;2022-09-03T02:25:13;13.90;99.90
26599;DHT22;14240;51.064;16.612;2022-09-03T02:27:39;13.80;99.90
26599;DHT22;14240;51.064;16.612;2022-09-03T02:30:06;13.80;99.90
26599;DHT22;14240;51.064;16.612;2022-09-03T02:32:32;13.70;99.90
26599;DHT22;14240;51.064;16.612;2022-09-03T02:34:58;13.60;99.90
26599;DHT22;14240;51.064;16.612;2022-09-03T02:37:24;13.60;99.90
26599;DHT22;14240;51.064;16.612;2022-09-03T02:39:50;13.50;99.90
26599;DHT22;14240;51.064;16.612;2022-09-03T02:42:19;13.50;99.90
26599;DHT22;14240;51.064;16.612;2022-09-03T02:45:02;13.20;99.90
26599;DHT22;14240;51.064;16.612;2022-09-03T02:47:32;13.40;99.90
26599;DHT22;14240;51.064;16.612;2022-09-03T02:49:58;13.20;99.90
26599;DHT22;14240;51.064;16.612;2022-09-03T02:52:24;13.30;99.90
26599;DHT22;14240;51.064;16.612;2022-09-03T02:54:50;13.30;99.90
26599;DHT22;14240;51.064;16.612;2022-09-03T02:57:16;13.20;99.90
26599;DHT22;14240;51.064;16.612;2022-09-03T02:59:42;13.20;99.90
26599;DHT22;14240;51.064;16.612;2022-09-03T03:02:12;13.20;99.90
26599;DHT22;14240;51.064;16.612;2022-09-03T03:04:38;13.10;99.90
26599;DHT22;14240;51.064;16.612;2022-09-03T03:07:05;13.10;99.90
26599;DHT22;14240;51.064;16.612;2022-09-03T03:09:31;13.00;99.90
26599;DHT22;14240;51.064;16.612;2022-09-03T03:11:57;12.90;99.90
26599;DHT22;14240;51.064;16.612;2022-09-03T03:14:22;12.80;99.90
26599;DHT22;14240;51.064;16.612;2022-09-03T03:16:49;12.80;99.90
26599;DHT22;14240;51.064;16.612;2022-09-03T03:19:14;12.70;99.90
26599;DHT22;14240;51.064;16.612;2022-09-03T03:21:40;12.70;99.90
26599;DHT22;14240;51.064;16.612;2022-09-03T03:24:06;12.60;99.90
26599;DHT22;14240;51.064;16.612;2022-09-03T03:26:32;12.60;99.90
26599;DHT22;14240;51.064;16.612;2022-09-03T03:29:00;12.50;99.90
26599;DHT22;14240;51.064;16.612;2022-09-03T03:31:29;12.40;99.90
26599;DHT22;14240;51.064;16.612;2022-09-03T03:33:57;12.40;99.90
26599;DHT22;14240;51.064;16.612;2022-09-03T03:36:26;12.30;99.90
26599;DHT22;14240;51.064;16.612;2022-09-03T03:38:53;12.30;99.90
26599;DHT22;14240;51.064;16.612;2022-09-03T03:41:31;12.20;99.90
26599;DHT22;14240;51.064;16.612;2022-09-03T03:43:58;12.20;99.90
26599;DHT22;14240;51.064;16.612;2022-09-03T03:46:27;12.10;99.90
26599;DHT22;14240;51.064;16.612;2022-09-03T03:48:53;12.10;99.90
26599;DHT22;14240;51.064;16.612;2022-09-03T03:51:19;12.00;99.90
26599;DHT22;14240;51.064;16.612;2022-09-03T03:53:45;12.00;99.90
26599;DHT22;14240;51.064;16.612;2022-09-03T03:56:13;11.90;99.90
26599;DHT22;14240;51.064;16.612;2022-09-03T03:58:40;11.90;99.90
26599;DHT22;14240;51.064;16.612;2022-09-03T04:01:20;11.90;99.90
26599;DHT22;14240;51.064;16.612;2022-09-03T04:03:46;11.80;99.90
26599;DHT22;14240;51.064;16.612;2022-09-03T04:06:17;11.80;99.90
26599;DHT22;14240;51.064;16.612;2022-09-03T04:08:44;11.80;99.90
26599;DHT22;14240;51.064;16.612;2022-09-03T04:11:19;11.80;99.90
26599;DHT22;14240;51.064;16.612;2022-09-03T04:13:46;11.70;99.90
26599;DHT22;14240;51.064;16.612;2022-09-03T04:16:34;11.70;99.90
26599;DHT22;14240;51.064;16.612;2022-09-03T04:19:00;11.70;99.90
26599;DHT22;14240;51.064;16.612;2022-09-03T04:21:27;11.70;99.90
26599;DHT22;14240;51.064;16.612;2022-09-03T04:23:54;11.70;99.90
26599;DHT22;14240;51.064;16.612;2022-09-03T04:26:22;11.70;99.90
26599;DHT22;14240;51.064;16.612;2022-09-03T04:28:48;11.60;99.90
26599;DHT22;14240;51.064;16.612;2022-09-03T04:31:16;11.60;99.90
26599;DHT22;14240;51.064;16.612;2022-09-03T04:33:42;11.70;99.90
26599;DHT22;14240;51.064;16.612;2022-09-03T04:36:16;11.60;99.90
26599;DHT22;14240;51.064;16.612;2022-09-03T04:38:44;11.60;99.90
26599;DHT22;14240;51.064;16.612;2022-09-03T04:41:13;11.60;99.90
26599;DHT22;14240;51.064;16.612;2022-09-03T04:43:39;11.60;99.90
26599;DHT22;14240;51.064;16.612;2022-09-03T04:46:08;11.60;99.90
26599;DHT22;14240;51.064;16.612;2022-09-03T04:48:35;11.60;99.90
26599;DHT22;14240;51.064;16.612;2022-09-03T04:51:07;11.70;99.90
26599;DHT22;14240;51.064;16.612;2022-09-03T04:53:37;11.70;99.90
26599;DHT22;14240;51.064;16.612;2022-09-03T04:56:18;11.80;99.90
26599;DHT22;14240;51.064;16.612;2022-09-03T04:58:44;11.70;99.90
26599;DHT22;14240;51.064;16.612;2022-09-03T05:01:21;11.80;99.90
26599;DHT22;14240;51.064;16.612;2022-09-03T05:03:50;11.80;99.90
26599;DHT22;14240;51.064;16.612;2022-09-03T05:06:17;11.90;99.90
26599;DHT22;14240;51.064;16.612;2022-09-03T05:08:46;11.90;99.90
26599;DHT22;14240;51.064;16.612;2022-09-03T05:11:13;12.00;99.90
26599;DHT22;14240;51.064;16.612;2022-09-03T05:13:39;12.10;99.90
26599;DHT22;14240;51.064;16.612;2022-09-03T05:16:07;12.20;99.90
26599;DHT22;14240;51.064;16.612;2022-09-03T05:18:34;12.30;99.90
26599;DHT22;14240;51.064;16.612;2022-09-03T05:23:30;12.40;99.90
26599;DHT22;14240;51.064;16.612;2022-09-03T05:26:01;12.50;99.90
26599;DHT22;14240;51.064;16.612;2022-09-03T05:28:29;12.50;99.90
26599;DHT22;14240;51.064;16.612;2022-09-03T05:33:36;12.60;99.90
26599;DHT22;14240;51.064;16.612;2022-09-03T05:36:10;12.70;99.90
26599;DHT22;14240;51.064;16.612;2022-09-03T05:38:37;12.80;99.90
26599;DHT22;14240;51.064;16.612;2022-09-03T05:41:05;12.80;99.90
26599;DHT22;14240;51.064;16.612;2022-09-03T05:43:33;12.80;99.90
26599;DHT22;14240;51.064;16.612;2022-09-03T05:46:04;12.90;99.90
26599;DHT22;14240;51.064;16.612;2022-09-03T05:48:33;13.00;99.90
26599;DHT22;14240;51.064;16.612;2022-09-03T05:51:11;13.00;99.90
26599;DHT22;14240;51.064;16.612;2022-09-03T05:53:41;13.10;99.90
26599;DHT22;14240;51.064;16.612;2022-09-03T05:56:10;13.20;99.90
26599;DHT22;14240;51.064;16.612;2022-09-03T05:58:41;13.30;99.90
26599;DHT22;14240;51.064;16.612;2022-09-03T06:01:24;13.30;99.90
26599;DHT22;14240;51.064;16.612;2022-09-03T06:03:56;13.40;99.90
26599;DHT22;14240;51.064;16.612;2022-09-03T06:06:23;13.50;99.90
26599;DHT22;14240;51.064;16.612;2022-09-03T06:08:59;13.60;99.90
26599;DHT22;14240;51.064;16.612;2022-09-03T06:11:28;13.70;99.90
26599;DHT22;14240;51.064;16.612;2022-09-03T06:14:00;13.80;99.90
26599;DHT22;14240;51.064;16.612;2022-09-03T06:16:26;13.90;99.90
26599;DHT22;14240;51.064;16.612;2022-09-03T06:18:53;14.00;99.90
26599;DHT22;14240;51.064;16.612;2022-09-03T06:21:20;14.20;99.90
26599;DHT22;14240;51.064;16.612;2022-09-03T06:23:50;14.30;99.90
26599;DHT22;14240;51.064;16.612;2022-09-03T06:26:16;14.40;99.90
26599;DHT22;14240;51.064;16.612;2022-09-03T06:28:43;14.40;99.90
26599;DHT22;14240;51.064;16.612;2022-09-03T06:31:11;14.50;99.90
26599;DHT22;14240;51.064;16.612;2022-09-03T06:33:38;14.60;99.90
26599;DHT22;14240;51.064;16.612;2022-09-03T06:36:08;14.60;99.90
26599;DHT22;14240;51.064;16.612;2022-09-03T06:38:35;14.70;99.90
26599;DHT22;14240;51.064;16.612;2022-09-03T06:41:05;14.80;99.90
26599;DHT22;14240;51.064;16.612;2022-09-03T06:43:36;14.90;99.90
26599;DHT22;14240;51.064;16.612;2022-09-03T06:46:08;15.00;99.90
26599;DHT22;14240;51.064;16.612;2022-09-03T06:48:35;15.10;99.90
26599;DHT22;14240;51.064;16.612;2022-09-03T06:51:09;15.20;99.90
26599;DHT22;14240;51.064;16.612;2022-09-03T06:53:40;15.40;99.90
26599;DHT22;14240;51.064;16.612;2022-09-03T06:56:09;15.60;99.90
26599;DHT22;14240;51.064;16.612;2022-09-03T06:58:40;15.70;99.90
26599;DHT22;14240;51.064;16.612;2022-09-03T07:01:14;15.80;99.90
26599;DHT22;14240;51.064;16.612;2022-09-03T07:03:41;15.80;99.90
26599;DHT22;14240;51.064;16.612;2022-09-03T07:06:12;15.90;99.90
26599;DHT22;14240;51.064;16.612;2022-09-03T07:08:39;15.90;99.90
26599;DHT22;14240;51.064;16.612;2022-09-03T07:11:11;16.00;99.90
26599;DHT22;14240;51.064;16.612;2022-09-03T07:13:42;15.90;99.90
26599;DHT22;14240;51.064;16.612;2022-09-03T07:16:33;16.00;99.90
26599;DHT22;14240;51.064;16.612;2022-09-03T07:18:59;16.10;99.90
26599;DHT22;14240;51.064;16.612;2022-09-03T07:21:27;16.30;99.90
26599;DHT22;14240;51.064;16.612;2022-09-03T07:23:54;16.40;99.90
26599;DHT22;14240;51.064;16.612;2022-09-03T07:26:30;16.50;99.90
26599;DHT22;14240;51.064;16.612;2022-09-03T07:28:57;16.70;99.90
26599;DHT22;14240;51.064;16.612;2022-09-03T07:31:30;16.80;99.90
26599;DHT22;14240;51.064;16.612;2022-09-03T07:34:00;17.00;99.90
26599;DHT22;14240;51.064;16.612;2022-09-03T07:36:28;17.10;99.90
26599;DHT22;14240;51.064;16.612;2022-09-03T07:38:57;17.10;99.90
26599;DHT22;14240;51.064;16.612;2022-09-03T07:41:25;17.20;99.90
26599;DHT22;14240;51.064;16.612;2022-09-03T07:43:51;17.40;99.90
26599;DHT22;14240;51.064;16.612;2022-09-03T07:46:22;17.50;99.90
26599;DHT22;14240;51.064;16.612;2022-09-03T07:48:50;17.60;99.90
26599;DHT22;14240;51.064;16.612;2022-09-03T07:51:17;17.70;99.90
26599;DHT22;14240;51.064;16.612;2022-09-03T07:53:47;17.70;99.90
26599;DHT22;14240;51.064;16.612;2022-09-03T07:56:13;17.90;99.90
26599;DHT22;14240;51.064;16.612;2022-09-03T07:58:40;18.10;99.70
26599;DHT22;14240;51.064;16.612;2022-09-03T08:01:11;18.10;99.60
26599;DHT22;14240;51.064;16.612;2022-09-03T08:03:41;18.20;99.50
26599;DHT22;14240;51.064;16.612;2022-09-03T08:06:07;18.30;98.90
26599;DHT22;14240;51.064;16.612;2022-09-03T08:08:36;18.40;98.50
26599;DHT22;14240;51.064;16.612;2022-09-03T08:11:07;18.40;98.20
26599;DHT22;14240;51.064;16.612;2022-09-03T08:13:38;18.40;98.30
26599;DHT22;14240;51.064;16.612;2022-09-03T08:16:05;18.60;98.40
26599;DHT22;14240;51.064;16.612;2022-09-03T08:18:33;18.60;98.40
26599;DHT22;14240;51.064;16.612;2022-09-03T08:21:03;18.70;98.20
26599;DHT22;14240;51.064;16.612;2022-09-03T08:23:29;18.80;97.70
26599;DHT22;14240;51.064;16.612;2022-09-03T08:25:59;18.90;97.30
26599;DHT22;14240;51.064;16.612;2022-09-03T08:28:26;19.10;97.10
26599;DHT22;14240;51.064;16.612;2022-09-03T08:30:51;19.10;97.00
26599;DHT22;14240;51.064;16.612;2022-09-03T08:33:17;19.20;97.40
26599;DHT22;14240;51.064;16.612;2022-09-03T08:36:05;19.30;97.40
26599;DHT22;14240;51.064;16.612;2022-09-03T08:38:32;19.50;96.90
26599;DHT22;14240;51.064;16.612;2022-09-03T08:41:10;19.60;96.60
26599;DHT22;14240;51.064;16.612;2022-09-03T08:46:54;19.60;96.80
26599;DHT22;14240;51.064;16.612;2022-09-03T08:49:26;19.70;96.90
26599;DHT22;14240;51.064;16.612;2022-09-03T08:52:00;19.70;96.60
26599;DHT22;14240;51.064;16.612;2022-09-03T08:54:29;19.80;96.40
26599;DHT22;14240;51.064;16.612;2022-09-03T08:56:59;19.90;96.30
26599;DHT22;14240;51.064;16.612;2022-09-03T08:59:26;19.90;96.00
26599;DHT22;14240;51.064;16.612;2022-09-03T09:01:59;20.00;96.00
26599;DHT22;14240;51.064;16.612;2022-09-03T09:07:30;20.10;95.70
26599;DHT22;14240;51.064;16.612;2022-09-03T09:16:21;20.40;95.20
26599;DHT22;14240;51.064;16.612;2022-09-03T09:21:54;20.50;95.10
26599;DHT22;14240;51.064;16.612;2022-09-03T09:24:25;20.60;95.00
26599;DHT22;14240;51.064;16.612;2022-09-03T09:26:57;20.70;95.00
26599;DHT22;14240;51.064;16.612;2022-09-03T09:29:26;20.80;95.10
26599;DHT22;14240;51.064;16.612;2022-09-03T09:31:54;20.90;94.50
26599;DHT22;14240;51.064;16.612;2022-09-03T09:34:20;21.00;94.40
26599;DHT22;14240;51.064;16.612;2022-09-03T09:36:52;21.10;93.90
26599;DHT22;14240;51.064;16.612;2022-09-03T09:39:18;21.10;93.40
26599;DHT22;14240;51.064;16.612;2022-09-03T09:41:56;21.20;93.50
26599;DHT22;14240;51.064;16.612;2022-09-03T09:44:24;21.30;93.50
26599;DHT22;14240;51.064;16.612;2022-09-03T09:46:50;21.40;93.10
26599;DHT22;14240;51.064;16.612;2022-09-03T09:49:33;21.40;93.00
26599;DHT22;14240;51.064;16.612;2022-09-03T09:52:11;21.50;93.00
26599;DHT22;14240;51.064;16.612;2022-09-03T09:54:38;21.60;92.40
26599;DHT22;14240;51.064;16.612;2022-09-03T09:57:06;21.60;92.30
26599;DHT22;14240;51.064;16.612;2022-09-03T09:59:34;21.70;92.60
26599;DHT22;14240;51.064;16.612;2022-09-03T10:02:18;21.80;92.60
26599;DHT22;14240;51.064;16.612;2022-09-03T10:04:48;21.90;92.60
26599;DHT22;14240;51.064;16.612;2022-09-03T10:07:29;22.00;92.20
26599;DHT22;14240;51.064;16.612;2022-09-03T10:12:29;22.00;91.50
26599;DHT22;14240;51.064;16.612;2022-09-03T10:15:27;22.00;91.70
26599;DHT22;14240;51.064;16.612;2022-09-03T10:17:58;22.10;91.90
26599;DHT22;14240;51.064;16.612;2022-09-03T10:20:48;22.20;91.60
26599;DHT22;14240;51.064;16.612;2022-09-03T10:23:26;22.30;91.10
26599;DHT22;14240;51.064;16.612;2022-09-03T10:26:10;22.30;91.40
26599;DHT22;14240;51.064;16.612;2022-09-03T10:28:41;22.40;91.20
26599;DHT22;14240;51.064;16.612;2022-09-03T10:31:27;22.50;91.40
26599;DHT22;14240;51.064;16.612;2022-09-03T10:34:28;22.60;91.10
26599;DHT22;14240;51.064;16.612;2022-09-03T10:42:43;22.50;88.80
26599;DHT22;14240;51.064;16.612;2022-09-03T10:45:26;22.50;88.30
26599;DHT22;14240;51.064;16.612;2022-09-03T10:53:35;22.50;88.00
26599;DHT22;14240;51.064;16.612;2022-09-03T10:56:14;22.50;87.50
26599;DHT22;14240;51.064;16.612;2022-09-03T10:58:57;22.60;87.50
26599;DHT22;14240;51.064;16.612;2022-09-03T11:04:28;22.70;88.10
26599;DHT22;14240;51.064;16.612;2022-09-03T11:07:02;22.80;86.70
26599;DHT22;14240;51.064;16.612;2022-09-03T11:09:39;22.80;85.60
26599;DHT22;14240;51.064;16.612;2022-09-03T11:12:18;22.70;85.00
26599;DHT22;14240;51.064;16.612;2022-09-03T11:14:55;22.70;83.40
26599;DHT22;14240;51.064;16.612;2022-09-03T11:17:25;22.60;84.10
26599;DHT22;14240;51.064;16.612;2022-09-03T11:19:58;22.60;84.10
26599;DHT22;14240;51.064;16.612;2022-09-03T11:22:30;22.60;84.30
26599;DHT22;14240;51.064;16.612;2022-09-03T11:24:58;22.60;84.80
26599;DHT22;14240;51.064;16.612;2022-09-03T11:27:34;22.70;84.50
26599;DHT22;14240;51.064;16.612;2022-09-03T11:30:05;22.70;84.20
26599;DHT22;14240;51.064;16.612;2022-09-03T11:32:49;22.70;84.00
26599;DHT22;14240;51.064;16.612;2022-09-03T11:38:03;22.80;84.20
26599;DHT22;14240;51.064;16.612;2022-09-03T11:40:36;22.90;83.90
26599;DHT22;14240;51.064;16.612;2022-09-03T11:43:09;23.40;84.10
26599;DHT22;14240;51.064;16.612;2022-09-03T11:45:38;22.90;83.80
26599;DHT22;14240;51.064;16.612;2022-09-03T11:48:17;23.00;84.00
26599;DHT22;14240;51.064;16.612;2022-09-03T11:50:52;23.10;84.60
26599;DHT22;14240;51.064;16.612;2022-09-03T11:55:59;23.30;84.50
26599;DHT22;14240;51.064;16.612;2022-09-03T11:58:37;23.40;83.40
26599;DHT22;14240;51.064;16.612;2022-09-03T12:01:08;23.30;83.80
26599;DHT22;14240;51.064;16.612;2022-09-03T12:03:52;23.30;84.50
26599;DHT22;14240;51.064;16.612;2022-09-03T12:07:15;23.30;83.40
26599;DHT22;14240;51.064;16.612;2022-09-03T12:17:43;22.90;82.20
26599;DHT22;14240;51.064;16.612;2022-09-03T12:20:33;22.80;82.10
26599;DHT22;14240;51.064;16.612;2022-09-03T12:22:59;22.70;82.60
26599;DHT22;14240;51.064;16.612;2022-09-03T12:25:28;22.70;82.20
26599;DHT22;14240;51.064;16.612;2022-09-03T12:27:53;22.60;81.80
26599;DHT22;14240;51.064;16.612;2022-09-03T12:30:22;22.50;82.20
26599;DHT22;14240;51.064;16.612;2022-09-03T12:32:49;22.50;82.30
26599;DHT22;14240;51.064;16.612;2022-09-03T12:35:20;22.40;82.50
26599;DHT22;14240;51.064;16.612;2022-09-03T12:37:46;22.40;83.40
26599;DHT22;14240;51.064;16.612;2022-09-03T12:40:17;22.40;82.50
26599;DHT22;14240;51.064;16.612;2022-09-03T12:42:44;22.40;82.00
26599;DHT22;14240;51.064;16.612;2022-09-03T12:45:10;22.30;82.90
26599;DHT22;14240;51.064;16.612;2022-09-03T12:47:40;22.30;83.30
26599;DHT22;14240;51.064;16.612;2022-09-03T12:50:24;22.30;83.60
26599;DHT22;14240;51.064;16.612;2022-09-03T12:52:59;22.40;84.20
26599;DHT22;14240;51.064;16.612;2022-09-03T12:55:48;22.40;83.60
26599;DHT22;14240;51.064;16.612;2022-09-03T13:03:27;22.30;83.90
26599;DHT22;14240;51.064;16.612;2022-09-03T13:06:00;22.30;84.20
26599;DHT22;14240;51.064;16.612;2022-09-03T13:08:30;22.30;84.20
26599;DHT22;14240;51.064;16.612;2022-09-03T13:10:58;22.40;84.00
26599;DHT22;14240;51.064;16.612;2022-09-03T13:13:32;22.50;83.20
26599;DHT22;14240;51.064;16.612;2022-09-03T13:30:22;23.10;84.10
26599;DHT22;14240;51.064;16.612;2022-09-03T13:33:05;23.30;83.40
26599;DHT22;14240;51.064;16.612;2022-09-03T13:36:10;23.40;82.40
26599;DHT22;14240;51.064;16.612;2022-09-03T13:39:01;23.30;82.30
26599;DHT22;14240;51.064;16.612;2022-09-03T13:41:48;23.30;82.00
26599;DHT22;14240;51.064;16.612;2022-09-03T13:44:39;23.30;82.10
26599;DHT22;14240;51.064;16.612;2022-09-03T13:50:45;23.20;81.80
26599;DHT22;14240;51.064;16.612;2022-09-03T14:02:05;23.40;80.90
26599;DHT22;14240;51.064;16.612;2022-09-03T14:07:26;23.40;79.90
26599;DHT22;14240;51.064;16.612;2022-09-03T14:10:17;23.30;79.70
26599;DHT22;14240;51.064;16.612;2022-09-03T14:13:05;23.30;80.20
26599;DHT22;14240;51.064;16.612;2022-09-03T14:15:58;23.10;80.00
26599;DHT22;14240;51.064;16.612;2022-09-03T14:18:43;23.00;80.20
26599;DHT22;14240;51.064;16.612;2022-09-03T14:21:15;22.90;80.60
26599;DHT22;14240;51.064;16.612;2022-09-03T14:26:17;22.70;82.00
26599;DHT22;14240;51.064;16.612;2022-09-03T14:28:49;22.70;81.60
26599;DHT22;14240;51.064;16.612;2022-09-03T14:31:26;22.70;81.90
26599;DHT22;14240;51.064;16.612;2022-09-03T14:36:35;22.70;82.00
26599;DHT22;14240;51.064;16.612;2022-09-03T14:39:30;22.60;81.90
26599;DHT22;14240;51.064;16.612;2022-09-03T14:56:04;22.40;82.30
26599;DHT22;14240;51.064;16.612;2022-09-03T14:58:52;22.40;82.20
26599;DHT22;14240;51.064;16.612;2022-09-03T15:01:32;22.30;81.80
26599;DHT22;14240;51.064;16.612;2022-09-03T15:09:26;22.30;83.10
26599;DHT22;14240;51.064;16.612;2022-09-03T15:14:52;22.20;82.70
26599;DHT22;14240;51.064;16.612;2022-09-03T15:20:18;22.10;83.40
26599;DHT22;14240;51.064;16.612;2022-09-03T15:23:08;22.20;83.30
26599;DHT22;14240;51.064;16.612;2022-09-03T15:36:51;21.90;84.10
26599;DHT22;14240;51.064;16.612;2022-09-03T15:39:25;21.80;84.60
26599;DHT22;14240;51.064;16.612;2022-09-03T15:41:56;21.80;84.80
26599;DHT22;14240;51.064;16.612;2022-09-03T15:44:25;21.70;84.30
26599;DHT22;14240;51.064;16.612;2022-09-03T15:47:07;21.70;84.50
26599;DHT22;14240;51.064;16.612;2022-09-03T15:49:57;21.60;85.10
26599;DHT22;14240;51.064;16.612;2022-09-03T15:55:40;21.40;85.80
26599;DHT22;14240;51.064;16.612;2022-09-03T15:58:34;21.30;85.90
26599;DHT22;14240;51.064;16.612;2022-09-03T16:01:35;21.30;86.30
26599;DHT22;14240;51.064;16.612;2022-09-03T16:07:00;21.10;87.10
26599;DHT22;14240;51.064;16.612;2022-09-03T16:09:48;21.10;87.40
26599;DHT22;14240;51.064;16.612;2022-09-03T16:17:43;21.00;88.20
26599;DHT22;14240;51.064;16.612;2022-09-03T16:20:19;20.90;88.50
26599;DHT22;14240;51.064;16.612;2022-09-03T16:22:53;20.90;89.00
26599;DHT22;14240;51.064;16.612;2022-09-03T16:25:28;20.80;89.20
26599;DHT22;14240;51.064;16.612;2022-09-03T16:28:12;20.80;89.60
26599;DHT22;14240;51.064;16.612;2022-09-03T16:38:33;20.60;90.50
26599;DHT22;14240;51.064;16.612;2022-09-03T16:57:04;20.10;91.60
26599;DHT22;14240;51.064;16.612;2022-09-03T17:02:20;19.90;91.90
26599;DHT22;14240;51.064;16.612;2022-09-03T17:05:12;19.90;92.30
26599;DHT22;14240;51.064;16.612;2022-09-03T17:15:46;19.60;92.70
26599;DHT22;14240;51.064;16.612;2022-09-03T17:21:31;19.40;93.00
26599;DHT22;14240;51.064;16.612;2022-09-03T17:24:37;19.30;93.10
26599;DHT22;14240;51.064;16.612;2022-09-03T17:32:43;19.10;93.70
26599;DHT22;14240;51.064;16.612;2022-09-03T17:35:35;19.00;93.80
26599;DHT22;14240;51.064;16.612;2022-09-03T17:40:42;18.90;94.20
26599;DHT22;14240;51.064;16.612;2022-09-03T17:43:21;18.80;94.30
26599;DHT22;14240;51.064;16.612;2022-09-03T17:46:10;18.70;94.40
26599;DHT22;14240;51.064;16.612;2022-09-03T17:48:51;18.60;94.60
26599;DHT22;14240;51.064;16.612;2022-09-03T17:53:58;18.60;95.00
26599;DHT22;14240;51.064;16.612;2022-09-03T17:56:32;18.40;95.10
26599;DHT22;14240;51.064;16.612;2022-09-03T17:59:09;18.40;95.30
26599;DHT22;14240;51.064;16.612;2022-09-03T18:01:51;18.30;95.80
26599;DHT22;14240;51.064;16.612;2022-09-03T18:12:35;18.00;96.10
26599;DHT22;14240;51.064;16.612;2022-09-03T18:18:19;17.90;96.40
26599;DHT22;14240;51.064;16.612;2022-09-03T18:20:49;17.80;96.50
26599;DHT22;14240;51.064;16.612;2022-09-03T18:23:51;17.80;96.60
26599;DHT22;14240;51.064;16.612;2022-09-03T18:26:42;17.60;96.70
26599;DHT22;14240;51.064;16.612;2022-09-03T18:29:33;17.60;96.90
26599;DHT22;14240;51.064;16.612;2022-09-03T18:32:19;17.50;97.00
26599;DHT22;14240;51.064;16.612;2022-09-03T18:35:03;17.50;97.20
26599;DHT22;14240;51.064;16.612;2022-09-03T18:37:47;17.50;97.40
26599;DHT22;14240;51.064;16.612;2022-09-03T18:40:46;17.40;97.50
26599;DHT22;14240;51.064;16.612;2022-09-03T18:43:54;17.30;97.70
26599;DHT22;14240;51.064;16.612;2022-09-03T18:50:43;17.20;98.00
26599;DHT22;14240;51.064;16.612;2022-09-03T18:53:27;17.20;98.10
26599;DHT22;14240;51.064;16.612;2022-09-03T18:56:39;17.10;98.20
26599;DHT22;14240;51.064;16.612;2022-09-03T19:02:28;17.00;98.40
26599;DHT22;14240;51.064;16.612;2022-09-03T19:08:18;17.00;98.70
26599;DHT22;14240;51.064;16.612;2022-09-03T19:14:28;17.00;99.20
26599;DHT22;14240;51.064;16.612;2022-09-03T19:17:26;17.10;99.30
26599;DHT22;14240;51.064;16.612;2022-09-03T19:20:28;17.10;99.50
26599;DHT22;14240;51.064;16.612;2022-09-03T19:23:13;17.20;99.20
26599;DHT22;14240;51.064;16.612;2022-09-03T19:26:05;17.20;99.20
26599;DHT22;14240;51.064;16.612;2022-09-03T19:29:02;17.10;99.20
26599;DHT22;14240;51.064;16.612;2022-09-03T19:31:55;17.10;99.30
26599;DHT22;14240;51.064;16.612;2022-09-03T19:43:50;16.70;99.70
26599;DHT22;14240;51.064;16.612;2022-09-03T19:46:51;16.60;99.90
26599;DHT22;14240;51.064;16.612;2022-09-03T19:50:05;16.60;99.90
26599;DHT22;14240;51.064;16.612;2022-09-03T19:53:03;16.50;99.90
26599;DHT22;14240;51.064;16.612;2022-09-03T19:55:55;16.50;99.90
26599;DHT22;14240;51.064;16.612;2022-09-03T19:58:57;16.40;99.90
26599;DHT22;14240;51.064;16.612;2022-09-03T20:01:44;16.30;99.90
26599;DHT22;14240;51.064;16.612;2022-09-03T20:04:34;16.30;99.90
26599;DHT22;14240;51.064;16.612;2022-09-03T20:07:20;16.30;99.90
26599;DHT22;14240;51.064;16.612;2022-09-03T20:10:09;16.30;99.90
26599;DHT22;14240;51.064;16.612;2022-09-03T20:20:59;16.10;99.90
26599;DHT22;14240;51.064;16.612;2022-09-03T20:26:44;16.00;99.90
26599;DHT22;14240;51.064;16.612;2022-09-03T20:29:34;16.00;99.90
26599;DHT22;14240;51.064;16.612;2022-09-03T20:46:52;15.70;99.90
26599;DHT22;14240;51.064;16.612;2022-09-03T20:52:16;15.60;99.90
26599;DHT22;14240;51.064;16.612;2022-09-03T20:54:47;15.50;99.90
26599;DHT22;14240;51.064;16.612;2022-09-03T20:57:41;15.50;99.90